createdAt,value
2023-12-03T00:01:09.942Z,100014.33
2023-12-03T00:04:04.046Z,100017.05
2023-12-03T00:06:40.245Z,100016.16
2023-12-03T00:09:32.866Z,100009.29
2023-12-03T00:12:09.909Z,100016.60
2023-12-03T00:14:44.216Z,100016.08
2023-12-03T00:17:23.267Z,100015.06
2023-12-03T00:20:12.116Z,100016.45
2023-12-03T00:22:55.497Z,100019.34
2023-12-03T00:25:43.068Z,100023.11
2023-12-03T00:28:27.967Z,100026.34
2023-12-03T00:31:06.924Z,100031.60
2023-12-03T00:33:37.878Z,100033.79
2023-12-03T00:36:09.540Z,100033.61
2023-12-03T00:38:43.970Z,100034.07
2023-12-03T00:41:15.778Z,100035.61
2023-12-03T00:43:53.854Z,100038.70
2023-12-03T00:46:35.899Z,100038.85
2023-12-03T00:49:19.023Z,100040.90
2023-12-03T00:52:00.625Z,100045.52
2023-12-03T00:55:04.128Z,100047.38
2023-12-03T00:57:43.326Z,100037.59
2023-12-03T01:00:19.909Z,100054.35
2023-12-03T01:03:00.739Z,100056.89
2023-12-03T01:05:35.232Z,100057.91
2023-12-03T01:08:21.873Z,100059.80
2023-12-03T01:11:16.544Z,100064.73
2023-12-03T01:14:18.388Z,100064.53
2023-12-03T01:16:54.339Z,100067.10
2023-12-03T01:19:25.821Z,100067.61
2023-12-03T01:22:02.264Z,100068.43
2023-12-03T01:24:38.662Z,100074.56
2023-12-03T01:27:22.201Z,100075.42
2023-12-03T01:29:55.432Z,100072.02
2023-12-03T01:32:29.471Z,100073.05
2023-12-03T01:35:18.999Z,100072.38
2023-12-03T01:38:04.230Z,100077.81
2023-12-03T01:40:39.953Z,100083.60
2023-12-03T01:43:12.710Z,100089.39
2023-12-03T01:45:46.627Z,100091.27
2023-12-03T01:48:17.006Z,100091.13
2023-12-03T01:50:52.328Z,100092.65
2023-12-03T01:53:24.022Z,100100.33
2023-12-03T01:55:55.668Z,100106.46
2023-12-03T01:58:29.116Z,100111.59
2023-12-03T02:00:59.848Z,100112.42
2023-12-03T02:03:49.123Z,100113.77
2023-12-03T02:06:27.822Z,100115.49
2023-12-03T02:08:59.207Z,100112.41
2023-12-03T02:11:33.147Z,100118.43
2023-12-03T02:14:04.074Z,100118.98
2023-12-03T02:16:37.437Z,100118.98
2023-12-03T02:19:20.478Z,100123.90
2023-12-03T02:21:59.525Z,100125.96
2023-12-03T02:24:37.863Z,100127.64
2023-12-03T02:27:09.664Z,100127.65
2023-12-03T02:29:56.423Z,100126.64
2023-12-03T02:32:33.958Z,100131.05
2023-12-03T02:35:05.372Z,100131.55
2023-12-03T02:37:34.954Z,100133.25
2023-12-03T02:40:10.770Z,100121.58
2023-12-03T02:42:51.772Z,100135.08
2023-12-03T02:45:32.615Z,100139.19
2023-12-03T02:48:10.524Z,100134.20
2023-12-03T02:50:46.459Z,100143.58
2023-12-03T02:53:18.262Z,100144.75
2023-12-03T02:55:54.379Z,100150.71
2023-12-03T02:58:36.484Z,100153.78
2023-12-03T03:01:24.353Z,100144.85
2023-12-03T03:04:06.488Z,100153.96
2023-12-03T03:06:38.797Z,100154.62
2023-12-03T03:09:13.575Z,100160.36
2023-12-03T03:12:02.192Z,100167.16
2023-12-03T03:14:34.940Z,100168.92
2023-12-03T03:17:08.651Z,100172.33
2023-12-03T03:19:46.128Z,100177.12
2023-12-03T03:22:17.228Z,100178.83
2023-12-03T03:24:56.601Z,100180.55
2023-12-03T03:27:32.986Z,100185.69
2023-12-03T03:30:07.512Z,100184.67
2023-12-03T03:32:44.207Z,100186.21
2023-12-03T03:35:19.028Z,100190.67
2023-12-03T03:37:57.121Z,100195.29
2023-12-03T03:40:35.428Z,100196.48
2023-12-03T03:43:15.112Z,100200.95
2023-12-03T03:45:58.962Z,100204.38
2023-12-03T03:48:36.692Z,100208.32
2023-12-03T03:54:15.637Z,100202.86
2023-12-03T03:57:10.717Z,100202.23
2023-12-03T03:59:45.307Z,100203.66
2023-12-03T04:02:21.906Z,100211.52
2023-12-03T04:05:22.584Z,100210.98
2023-12-03T04:08:02.041Z,100214.56
2023-12-03T04:10:46.906Z,100206.86
2023-12-03T04:13:29.210Z,100207.23
2023-12-03T04:16:02.176Z,100196.75
2023-12-03T04:18:47.134Z,100217.68
2023-12-03T04:21:52.913Z,100223.33
2023-12-03T04:24:38.367Z,100225.37
2023-12-03T04:27:39.157Z,100231.04
2023-12-03T04:30:41.163Z,100233.65
2023-12-03T04:33:16.150Z,100237.13
2023-12-03T04:35:46.617Z,100239.38
2023-12-03T04:38:21.723Z,100236.16
2023-12-03T04:40:54.555Z,100238.71
2023-12-03T04:43:32.958Z,100245.73
2023-12-03T04:46:09.404Z,100250.85
2023-12-03T04:48:52.862Z,100251.20
2023-12-03T04:51:40.788Z,100257.69
2023-12-03T04:54:11.650Z,100252.06
2023-12-03T04:56:48.076Z,100251.56
2023-12-03T04:59:22.504Z,100258.41
2023-12-03T05:01:56.453Z,100260.61
2023-12-03T05:04:28.993Z,100263.70
2023-12-03T05:07:09.416Z,100265.91
2023-12-03T05:09:49.227Z,100269.80
2023-12-03T05:12:28.619Z,100273.23
2023-12-03T05:15:08.522Z,100276.48
2023-12-03T05:17:52.641Z,100280.23
2023-12-03T05:20:40.260Z,100281.08
2023-12-03T05:23:15.897Z,100277.98
2023-12-03T05:26:01.570Z,100284.02
2023-12-03T05:28:39.139Z,100291.20
2023-12-03T05:31:10.440Z,100291.56
2023-12-03T05:33:44.327Z,100267.05
2023-12-03T05:36:30.811Z,100293.47
2023-12-03T05:39:12.270Z,100296.72
2023-12-03T05:41:45.101Z,100302.70
2023-12-03T05:44:20.980Z,100307.77
2023-12-03T05:47:00.105Z,100309.98
2023-12-03T05:49:38.125Z,100309.30
2023-12-03T05:52:25.738Z,100311.34
2023-12-03T05:54:56.689Z,100312.55
2023-12-03T05:57:27.709Z,100317.34
2023-12-03T06:00:05.132Z,100319.07
2023-12-03T06:02:41.801Z,100325.59
2023-12-03T06:05:32.165Z,100326.63
2023-12-03T06:08:12.806Z,100332.44
2023-12-03T06:10:57.050Z,100335.52
2023-12-03T06:13:42.233Z,100338.10
2023-12-03T06:16:22.157Z,100341.70
2023-12-03T06:19:14.569Z,100349.41
2023-12-03T06:22:01.029Z,100357.62
2023-12-03T06:24:54.318Z,100357.30
2023-12-03T06:27:41.643Z,100359.85
2023-12-03T06:30:30.877Z,100368.19
2023-12-03T06:33:13.361Z,100370.60
2023-12-03T06:35:52.508Z,100375.55
2023-12-03T06:38:54.262Z,100377.41
2023-12-03T06:41:31.367Z,100379.45
2023-12-03T06:44:38.543Z,100382.70
2023-12-03T06:51:12.539Z,100398.34
2023-12-03T06:54:28.189Z,100400.55
2023-12-03T06:58:23.983Z,100405.30
2023-12-03T07:06:42.843Z,100425.05
2023-12-03T07:10:16.316Z,100426.42
2023-12-03T07:20:44.976Z,100449.80
2023-12-03T07:23:33.132Z,100454.94
2023-12-03T07:26:31.628Z,100457.52
2023-12-03T07:29:04.005Z,100459.39
2023-12-03T07:31:44.605Z,100462.29
2023-12-03T07:34:36.411Z,100465.70
2023-12-03T07:37:32.991Z,100473.55
2023-12-03T07:40:49.949Z,100480.70
2023-12-03T07:43:26.630Z,100484.59
2023-12-03T07:46:11.002Z,100488.83
2023-12-03T07:48:45.010Z,100494.13
2023-12-03T07:51:15.827Z,100495.52
2023-12-03T07:53:51.058Z,100495.80
2023-12-03T07:56:25.232Z,100502.82
2023-12-03T07:59:05.167Z,100507.74
2023-12-03T08:01:33.986Z,100512.02
2023-12-03T08:04:04.646Z,100515.60
2023-12-03T08:06:37.830Z,100517.95
2023-12-03T08:09:09.040Z,100520.67
2023-12-03T08:11:41.386Z,100525.98
2023-12-03T08:14:10.680Z,100532.46
2023-12-03T08:16:42.214Z,100535.34
2023-12-03T08:19:18.759Z,100536.56
2023-12-03T08:21:50.958Z,100543.52
2023-12-03T08:24:19.822Z,100548.06
2023-12-03T08:26:51.283Z,100554.29
2023-12-03T08:29:19.731Z,100561.19
2023-12-03T08:31:57.764Z,100563.30
2023-12-03T08:34:29.850Z,100563.90
2023-12-03T08:37:06.212Z,100572.00
2023-12-03T08:39:36.081Z,100575.33
2023-12-03T08:42:09.238Z,100580.49
2023-12-03T08:45:05.320Z,100583.64
2023-12-03T08:47:44.146Z,100580.95
2023-12-03T08:50:51.206Z,100595.41
2023-12-03T08:53:23.800Z,100600.63
2023-12-03T08:56:01.077Z,100606.71
2023-12-03T08:58:36.772Z,100611.08
2023-12-03T09:01:17.401Z,100616.02
2023-12-03T09:04:10.912Z,100617.55
2023-12-03T09:06:45.149Z,100622.88
2023-12-03T09:09:16.945Z,100633.02
2023-12-03T09:12:00.316Z,100637.25
2023-12-03T09:14:44.954Z,100636.88
2023-12-03T09:17:34.371Z,100640.52
2023-12-03T09:20:11.622Z,100641.04
2023-12-03T09:22:57.592Z,100642.91
2023-12-03T09:25:28.346Z,100645.48
2023-12-03T09:28:09.290Z,100644.66
2023-12-03T09:30:38.967Z,100644.39
2023-12-03T09:33:17.378Z,100648.16
2023-12-03T09:35:55.237Z,100652.09
2023-12-03T09:38:33.877Z,100651.80
2023-12-03T09:41:17.982Z,100650.45
2023-12-03T09:44:12.059Z,100653.46
2023-12-03T09:46:56.140Z,100658.20
2023-12-03T09:49:34.850Z,100659.73
2023-12-03T09:52:16.017Z,100655.44
2023-12-03T09:55:00.144Z,100664.08
2023-12-03T09:57:39.552Z,100666.07
2023-12-03T10:00:13.916Z,100664.05
2023-12-03T10:02:53.663Z,100669.46
2023-12-03T10:05:35.836Z,100674.20
2023-12-03T10:08:15.325Z,100672.95
2023-12-03T10:11:10.865Z,100673.16
2023-12-03T10:13:52.740Z,100675.23
2023-12-03T10:16:24.790Z,100677.02
2023-12-03T10:18:58.835Z,100682.21
2023-12-03T10:21:31.070Z,100682.83
2023-12-03T10:24:04.446Z,100686.30
2023-12-03T10:26:47.189Z,100690.18
2023-12-03T10:29:16.946Z,100693.98
2023-12-03T10:31:53.132Z,100691.33
2023-12-03T10:34:39.874Z,100694.30
2023-12-03T10:37:20.355Z,100698.77
2023-12-03T10:40:03.470Z,100700.50
2023-12-03T10:42:40.550Z,100700.02
2023-12-03T10:45:13.870Z,100698.70
2023-12-03T10:48:33.229Z,100699.64
2023-12-03T10:51:14.890Z,100704.77
2023-12-03T10:53:56.513Z,100705.33
2023-12-03T10:56:43.249Z,100710.66
2023-12-03T11:00:32.280Z,100714.48
2023-12-03T11:04:24.799Z,100711.65
2023-12-03T11:07:02.049Z,100712.38
2023-12-03T11:09:49.760Z,100714.98
2023-12-03T11:12:35.215Z,100715.76
2023-12-03T11:15:15.378Z,100720.55
2023-12-03T11:18:05.200Z,100725.55
2023-12-03T11:21:00.759Z,100730.66
2023-12-03T11:24:13.347Z,100732.33
2023-12-03T11:27:19.134Z,100735.45
2023-12-03T11:30:15.388Z,100735.03
2023-12-03T11:33:00.317Z,100735.73
2023-12-03T11:35:31.498Z,100732.80
2023-12-03T11:38:34.531Z,100735.27
2023-12-03T11:41:28.604Z,100740.26
2023-12-03T11:44:34.471Z,100741.60
2023-12-03T11:47:14.410Z,100741.89
2023-12-03T11:50:03.240Z,100744.10
2023-12-03T11:53:06.121Z,100745.42
2023-12-03T11:55:52.178Z,100748.92
2023-12-03T11:58:29.686Z,100754.50
2023-12-03T12:01:42.129Z,100760.09
2023-12-03T12:04:25.074Z,100759.41
2023-12-03T12:07:20.472Z,100760.67
2023-12-03T12:10:25.728Z,100760.66
2023-12-03T12:13:27.503Z,100763.73
2023-12-03T12:19:23.959Z,100768.13
2023-12-03T12:22:03.920Z,100769.09
2023-12-03T12:24:55.298Z,100773.49
2023-12-03T12:27:35.520Z,100774.42
2023-12-03T12:30:42.097Z,100771.50
2023-12-03T12:33:30.996Z,100775.55
2023-12-03T12:36:29.210Z,100775.61
2023-12-03T12:39:06.518Z,100779.95
2023-12-03T12:42:03.086Z,100781.10
2023-12-03T12:45:15.225Z,100784.25
2023-12-03T12:48:00.814Z,100787.17
2023-12-03T12:50:46.232Z,100783.41
2023-12-03T12:53:24.938Z,100783.42
2023-12-03T12:56:06.775Z,100784.63
2023-12-03T12:58:52.410Z,100773.44
2023-12-03T13:01:32.283Z,100781.17
2023-12-03T13:04:15.783Z,100778.09
2023-12-03T13:07:05.882Z,100780.02
2023-12-03T13:09:51.051Z,100782.45
2023-12-03T13:12:32.247Z,100779.90
2023-12-03T13:15:18.397Z,100784.98
2023-12-03T13:18:12.715Z,100787.54
2023-12-03T13:20:51.195Z,100788.18
2023-12-03T13:23:31.372Z,100778.85
2023-12-03T13:26:12.968Z,100794.05
2023-12-03T13:28:49.764Z,100799.55
2023-12-03T13:31:38.014Z,100799.06
2023-12-03T13:34:48.189Z,100807.08
2023-12-03T13:37:38.370Z,100810.36
2023-12-03T13:40:26.240Z,100811.80
2023-12-03T13:43:18.918Z,100813.67
2023-12-03T13:45:57.158Z,100815.55
2023-12-03T13:48:35.399Z,100815.52
2023-12-03T13:51:16.315Z,100819.23
2023-12-03T13:54:05.795Z,100816.52
2023-12-03T13:57:10.153Z,100821.13
2023-12-03T13:59:59.752Z,100819.55
2023-12-03T14:02:52.900Z,100819.04
2023-12-03T14:05:43.137Z,100820.63
2023-12-03T14:08:32.854Z,100819.27
2023-12-03T14:11:28.708Z,100820.13
2023-12-03T14:14:48.748Z,100821.52
2023-12-03T14:17:30.717Z,100823.58
2023-12-03T14:20:30.843Z,100822.90
2023-12-03T14:23:23.125Z,100827.86
2023-12-03T14:26:07.844Z,100831.30
2023-12-03T14:28:46.603Z,100833.73
2023-12-03T14:31:27.332Z,100839.75
2023-12-03T14:34:16.700Z,100839.09
2023-12-03T14:37:07.605Z,100835.55
2023-12-03T14:39:44.528Z,100839.82
2023-12-03T14:42:23.575Z,100841.52
2023-12-03T14:45:07.487Z,100843.56
2023-12-03T14:47:58.518Z,100850.85
2023-12-03T14:50:58.367Z,100850.63
2023-12-03T14:53:51.046Z,100845.58
2023-12-03T14:56:47.110Z,100860.23
2023-12-03T14:59:49.476Z,100862.10
2023-12-03T15:02:47.428Z,100865.19
2023-12-03T15:05:33.748Z,100866.10
2023-12-03T15:08:21.445Z,100867.70
2023-12-03T15:11:26.009Z,100875.80
2023-12-03T15:14:14.274Z,100875.31
2023-12-03T15:17:19.402Z,100876.89
2023-12-03T15:19:55.219Z,100877.96
2023-12-03T15:22:47.901Z,100879.70
2023-12-03T15:28:45.582Z,100889.16
2023-12-03T15:31:37.598Z,100889.00
2023-12-03T15:34:14.040Z,100885.34
2023-12-03T15:36:58.272Z,100888.45
2023-12-03T15:39:50.281Z,100883.70
2023-12-03T15:42:29.578Z,100878.63
2023-12-03T15:45:19.758Z,100875.61
2023-12-03T15:54:08.630Z,100885.39
2023-12-03T15:54:54.802Z,100891.38
2023-12-03T15:57:55.676Z,100891.69
2023-12-03T16:00:27.708Z,100891.05
2023-12-03T16:03:04.989Z,100893.52
2023-12-03T16:06:04.477Z,100892.16
2023-12-03T16:08:37.509Z,100893.89
2023-12-03T16:11:08.010Z,100896.80
2023-12-03T16:14:00.696Z,100894.91
2023-12-03T16:17:06.159Z,100895.73
2023-12-03T16:19:51.638Z,100896.17
2023-12-03T16:22:45.472Z,100895.42
2023-12-03T16:25:37.161Z,100894.15
2023-12-03T16:28:17.736Z,100899.36
2023-12-03T16:31:22.727Z,100903.23
2023-12-03T16:34:19.173Z,100907.58
2023-12-03T16:41:12.097Z,100904.52
2023-12-03T16:44:26.131Z,100910.41
2023-12-03T16:47:19.486Z,100913.44
2023-12-03T16:50:20.211Z,100916.66
2023-12-03T16:53:34.472Z,100919.55
2023-12-03T16:56:30.602Z,100920.58
2023-12-03T16:59:22.750Z,100919.86
2023-12-03T17:02:12.880Z,100918.02
2023-12-03T17:05:15.468Z,100922.46
2023-12-03T17:08:28.049Z,100926.45
2023-12-03T17:11:26.107Z,100930.54
2023-12-03T17:14:05.106Z,100931.39
2023-12-03T17:16:42.404Z,100933.23
2023-12-03T17:20:11.630Z,100930.58
2023-12-03T17:23:31.096Z,100930.84
2023-12-03T17:26:11.155Z,100934.89
2023-12-03T17:28:49.772Z,100936.47
2023-12-03T17:31:27.196Z,100935.66
2023-12-03T17:33:59.129Z,100937.23
2023-12-03T17:36:32.159Z,100940.80
2023-12-03T17:39:12.978Z,100940.28
2023-12-03T17:41:46.107Z,100937.91
2023-12-03T17:44:48.751Z,100938.48
2023-12-03T17:47:29.876Z,100916.90
2023-12-03T17:50:04.210Z,100938.87
2023-12-03T17:52:44.912Z,100938.33
2023-12-03T17:55:27.759Z,100938.14
2023-12-03T17:58:19.386Z,100939.18
2023-12-03T18:01:10.000Z,100938.15
2023-12-03T18:03:54.534Z,100941.01
2023-12-03T18:06:40.365Z,100942.55
2023-12-03T18:09:23.977Z,100943.92
2023-12-03T18:11:59.548Z,100941.90
2023-12-03T18:14:40.464Z,100945.83
2023-12-03T18:17:15.944Z,100945.99
2023-12-03T18:19:50.414Z,100945.64
2023-12-03T18:22:23.460Z,100945.10
2023-12-03T18:24:59.302Z,100944.05
2023-12-03T18:27:34.026Z,100944.63
2023-12-03T18:30:12.541Z,100943.52
2023-12-03T18:32:46.370Z,100943.51
2023-12-03T18:35:37.793Z,100945.20
2023-12-03T18:38:14.337Z,100946.77
2023-12-03T18:40:55.630Z,100947.99
2023-12-03T18:43:46.531Z,100952.27
2023-12-03T18:46:22.256Z,100953.30
2023-12-03T18:48:56.487Z,100956.20
2023-12-03T18:51:36.779Z,100952.02
2023-12-03T18:54:13.268Z,100952.49
2023-12-03T18:56:47.525Z,100953.35
2023-12-03T18:59:46.854Z,100954.92
2023-12-03T19:04:04.874Z,100958.48
2023-12-03T19:07:31.192Z,100958.14
2023-12-03T19:22:52.663Z,100970.40
2023-12-03T19:26:52.198Z,100977.84
2023-12-03T19:30:31.193Z,100978.72
2023-12-03T21:07:20.070Z,100991.23
2023-12-03T21:10:42.946Z,100987.66
2023-12-03T21:14:12.134Z,100989.34
2023-12-03T21:21:39.688Z,101001.86
2023-12-03T21:25:24.876Z,101003.86
2023-12-03T21:29:14.178Z,101004.85
2023-12-03T21:36:02.865Z,101014.23
2023-12-03T21:39:32.806Z,101013.04
2023-12-03T21:42:57.842Z,101016.27
2023-12-03T21:52:22.188Z,101013.34
2023-12-03T21:58:17.750Z,101019.11
2023-12-03T22:08:05.912Z,101023.73
2023-12-03T22:10:52.620Z,101025.65
2023-12-03T22:14:00.704Z,101024.31
2023-12-03T22:17:32.136Z,101028.68
2023-12-03T22:21:23.795Z,101035.36
2023-12-03T22:24:46.330Z,101038.60
2023-12-03T22:27:58.114Z,101045.05
2023-12-03T22:31:01.365Z,101047.08
2023-12-03T22:34:20.835Z,101045.70
2023-12-03T22:37:10.712Z,101047.07
2023-12-03T22:39:53.532Z,101047.77
2023-12-03T22:43:12.154Z,101046.89
2023-12-03T22:45:56.134Z,101051.98
2023-12-03T22:48:57.745Z,101050.67
2023-12-03T22:51:47.803Z,101051.61
2023-12-03T22:54:42.246Z,101053.02
2023-12-03T22:57:46.837Z,101049.77
2023-12-03T23:00:45.852Z,101046.76
2023-12-03T23:03:50.535Z,101050.52
2023-12-03T23:06:29.031Z,101051.34
2023-12-03T23:09:32.845Z,101057.10
2023-12-03T23:12:57.851Z,101054.16
2023-12-03T23:15:57.068Z,101052.59
2023-12-03T23:19:13.987Z,101050.98
2023-12-03T23:22:50.575Z,101048.63
2023-12-03T23:25:42.193Z,101047.02
2023-12-03T23:29:08.140Z,101041.84
2023-12-03T23:35:26.787Z,101047.72
2023-12-03T23:38:15.256Z,101048.88
2023-12-03T23:41:23.625Z,101050.73
2023-12-03T23:44:08.637Z,101056.97
2023-12-03T23:47:17.441Z,101056.05
2023-12-03T23:50:18.578Z,101055.30
2023-12-03T23:53:03.957Z,101056.59
2023-12-03T23:55:44.611Z,101057.48
2023-12-03T23:58:36.544Z,101056.03
